createdAt,value
2017-11-29T00:01:52.145Z,7.00
2017-11-29T00:04:20.861Z,8.07
2017-11-29T00:06:50.352Z,6.80
2017-11-29T00:09:19.095Z,6.72
2017-11-29T00:11:47.781Z,6.93
2017-11-29T00:14:16.569Z,6.60
2017-11-29T00:16:45.448Z,6.57
2017-11-29T00:19:13.848Z,6.75
2017-11-29T00:21:42.745Z,6.75
2017-11-29T00:24:10.583Z,7.40
2017-11-29T00:26:38.998Z,7.15
2017-11-29T00:29:07.699Z,9.20
2017-11-29T00:31:36.412Z,7.05
2017-11-29T00:34:05.887Z,9.43
2017-11-29T00:36:34.247Z,7.28
2017-11-29T00:39:02.951Z,7.22
2017-11-29T00:41:30.974Z,7.15
2017-11-29T00:44:00.440Z,7.60
2017-11-29T00:46:29.356Z,7.47
2017-11-29T00:48:58.836Z,7.60
2017-11-29T00:51:27.525Z,7.97
2017-11-29T00:53:56.231Z,7.55
2017-11-29T00:56:25.671Z,7.95
2017-11-29T00:58:54.201Z,6.78
2017-11-29T01:01:22.707Z,7.62
2017-11-29T01:03:52.003Z,8.70
2017-11-29T01:06:21.463Z,7.47
2017-11-29T01:08:50.154Z,8.65
2017-11-29T01:11:18.866Z,9.02
2017-11-29T01:13:47.576Z,9.15
2017-11-29T01:16:17.044Z,8.05
2017-11-29T01:18:45.752Z,8.20
2017-11-29T01:21:14.444Z,7.55
2017-11-29T01:23:43.180Z,9.13
2017-11-29T01:26:11.873Z,8.30
2017-11-29T01:28:40.236Z,7.37
2017-11-29T01:31:09.159Z,8.75
2017-11-29T01:33:37.860Z,7.35
2017-11-29T01:36:06.567Z,8.48
2017-11-29T01:38:35.272Z,8.25
2017-11-29T01:41:04.547Z,8.13
2017-11-29T01:43:33.056Z,7.40
2017-11-29T01:46:02.461Z,6.90
2017-11-29T01:48:31.752Z,11.02
2017-11-29T01:51:00.551Z,8.20
2017-11-29T01:53:29.685Z,7.28
2017-11-29T01:55:58.407Z,7.65
2017-11-29T01:58:27.103Z,7.87
2017-11-29T02:00:55.824Z,8.35
2017-11-29T02:03:25.271Z,7.97
2017-11-29T02:05:53.439Z,8.73
2017-11-29T02:08:22.199Z,8.02
2017-11-29T02:10:50.888Z,8.45
2017-11-29T02:13:19.595Z,8.00
2017-11-29T02:15:48.304Z,9.55
2017-11-29T02:18:17.005Z,6.20
2017-11-29T02:20:45.365Z,8.15
2017-11-29T02:23:13.388Z,7.72
2017-11-29T02:25:42.316Z,8.98
2017-11-29T02:28:10.348Z,8.90
2017-11-29T02:30:38.409Z,7.60
2017-11-29T02:33:06.766Z,7.90
2017-11-29T02:35:35.585Z,7.25
2017-11-29T02:38:04.265Z,7.50
2017-11-29T02:40:56.852Z,7.62
2017-11-29T02:43:24.692Z,9.00
2017-11-29T02:45:54.232Z,8.50
2017-11-29T02:48:22.258Z,7.35
2017-11-29T02:50:50.308Z,6.80
2017-11-29T02:53:18.341Z,7.95
2017-11-29T02:55:46.386Z,8.52
2017-11-29T02:58:15.188Z,9.40
2017-11-29T03:00:43.253Z,11.12
2017-11-29T03:03:12.193Z,6.78
2017-11-29T03:05:40.892Z,9.35
2017-11-29T03:08:09.728Z,8.57
2017-11-29T03:10:39.368Z,8.40
2017-11-29T03:13:08.096Z,7.65
2017-11-29T03:15:38.293Z,7.55
2017-11-29T03:18:06.357Z,10.15
2017-11-29T03:20:35.062Z,8.85
2017-11-29T03:23:03.768Z,7.47
2017-11-29T03:25:32.472Z,8.30
2017-11-29T03:28:01.944Z,8.90
2017-11-29T03:30:30.649Z,6.45
2017-11-29T03:33:00.860Z,7.68
2017-11-29T03:35:29.604Z,7.22
2017-11-29T03:37:58.326Z,8.90
2017-11-29T03:40:27.016Z,8.55
2017-11-29T03:42:55.739Z,7.35
2017-11-29T03:45:25.342Z,7.82
2017-11-29T03:47:54.825Z,7.15
2017-11-29T03:50:23.523Z,6.18
2017-11-29T03:52:52.220Z,7.07
2017-11-29T03:55:20.977Z,5.70
2017-11-29T03:57:49.735Z,5.60
2017-11-29T04:00:18.454Z,7.45
2017-11-29T04:02:47.221Z,5.25
2017-11-29T04:05:15.976Z,4.90
2017-11-29T04:07:45.428Z,4.90
2017-11-29T04:10:14.141Z,5.22
2017-11-29T04:12:42.524Z,6.12
2017-11-29T04:15:11.664Z,6.50
2017-11-29T04:17:40.033Z,7.37
2017-11-29T04:20:09.534Z,5.12
2017-11-29T04:22:38.838Z,6.28
2017-11-29T04:25:07.968Z,4.05
2017-11-29T04:27:36.351Z,4.10
2017-11-29T04:30:04.852Z,5.25
2017-11-29T04:32:33.595Z,6.95
2017-11-29T04:35:03.097Z,5.10
2017-11-29T04:37:32.360Z,5.93
2017-11-29T04:40:00.881Z,5.40
2017-11-29T04:42:30.358Z,5.90
2017-11-29T04:44:59.104Z,6.40
2017-11-29T04:47:27.812Z,6.65
2017-11-29T04:49:55.852Z,5.85
2017-11-29T04:52:24.027Z,5.47
2017-11-29T04:54:52.410Z,5.35
2017-11-29T04:57:20.436Z,5.10
2017-11-29T04:59:48.484Z,6.30
2017-11-29T05:02:17.183Z,6.50
2017-11-29T05:04:45.912Z,6.20
2017-11-29T05:07:15.368Z,5.75
2017-11-29T05:09:43.740Z,6.28
2017-11-29T05:12:11.776Z,5.70
2017-11-29T05:14:39.840Z,5.60
2017-11-29T05:17:09.034Z,7.95
2017-11-29T05:19:37.836Z,5.57
2017-11-29T05:22:07.364Z,5.95
2017-11-29T05:24:35.760Z,5.75
2017-11-29T05:27:04.117Z,5.40
2017-11-29T05:29:32.505Z,6.97
2017-11-29T05:32:00.863Z,6.97
2017-11-29T05:34:29.712Z,7.28
2017-11-29T05:36:58.223Z,8.82
2017-11-29T05:39:27.344Z,13.82
2017-11-29T05:41:55.717Z,12.00
2017-11-29T05:44:24.100Z,12.00
2017-11-29T05:46:52.480Z,11.40
2017-11-29T05:49:21.636Z,9.60
2017-11-29T05:51:49.689Z,9.45
2017-11-29T05:54:17.741Z,9.23
2017-11-29T05:56:46.108Z,9.98
2017-11-29T05:59:14.827Z,9.45
2017-11-29T06:01:42.848Z,9.57
2017-11-29T06:04:12.156Z,9.48
2017-11-29T06:06:41.081Z,12.32
2017-11-29T06:09:10.580Z,9.45
2017-11-29T06:11:38.940Z,7.93
2017-11-29T06:14:07.825Z,10.63
2017-11-29T06:16:37.293Z,9.77
2017-11-29T06:19:05.354Z,11.85
2017-11-29T06:21:33.709Z,10.60
2017-11-29T06:24:02.420Z,9.52
2017-11-29T06:26:30.547Z,9.63
2017-11-29T06:28:59.928Z,12.15
2017-11-29T06:31:29.213Z,9.30
2017-11-29T06:33:57.723Z,9.40
2017-11-29T06:36:27.232Z,10.20
2017-11-29T06:38:56.761Z,12.35
2017-11-29T06:41:26.101Z,10.13
2017-11-29T06:43:54.819Z,10.45
2017-11-29T06:46:24.346Z,14.93
2017-11-29T06:48:53.156Z,10.88
2017-11-29T06:51:21.873Z,11.73
2017-11-29T06:53:50.564Z,11.90
2017-11-29T06:56:19.398Z,11.38
2017-11-29T06:58:48.868Z,12.95
2017-11-29T07:01:17.576Z,11.52
2017-11-29T07:03:46.292Z,12.15
2017-11-29T07:06:15.008Z,11.70
2017-11-29T07:08:43.708Z,12.63
2017-11-29T07:11:12.435Z,14.00
2017-11-29T07:13:42.041Z,14.25
2017-11-29T07:16:10.748Z,12.45
2017-11-29T07:18:39.499Z,14.07
2017-11-29T07:21:08.197Z,10.68
2017-11-29T07:23:36.915Z,12.75
2017-11-29T07:26:05.612Z,16.50
2017-11-29T07:28:33.825Z,16.50
2017-11-29T07:31:02.545Z,20.67
2017-11-29T07:33:31.941Z,24.27
2017-11-29T07:36:01.228Z,19.60
2017-11-29T07:38:30.006Z,16.33
2017-11-29T07:40:58.720Z,12.23
2017-11-29T07:43:28.232Z,11.57
2017-11-29T07:45:57.699Z,10.40
2017-11-29T07:48:26.691Z,11.07
2017-11-29T07:50:55.448Z,11.32
2017-11-29T07:53:24.150Z,9.00
2017-11-29T07:55:52.872Z,11.12
2017-11-29T07:58:21.568Z,8.15
2017-11-29T08:00:50.303Z,8.52
2017-11-29T08:03:19.131Z,8.20
2017-11-29T08:05:47.894Z,8.38
2017-11-29T08:08:16.597Z,6.72
2017-11-29T08:10:45.345Z,5.93
2017-11-29T08:13:14.052Z,7.50
2017-11-29T08:15:42.766Z,6.65
2017-11-29T08:18:11.330Z,7.12
2017-11-29T08:20:41.160Z,6.55
2017-11-29T08:23:09.884Z,5.80
2017-11-29T08:25:38.581Z,6.55
2017-11-29T08:28:08.086Z,5.65
2017-11-29T08:30:37.256Z,6.85
2017-11-29T08:33:05.829Z,9.85
2017-11-29T08:35:34.181Z,6.22
2017-11-29T08:38:02.895Z,6.43
2017-11-29T08:40:31.804Z,7.03
2017-11-29T08:43:00.165Z,6.10
2017-11-29T08:45:28.928Z,7.37
2017-11-29T08:47:57.032Z,6.27
2017-11-29T08:50:25.093Z,7.30
2017-11-29T08:52:53.574Z,7.20
2017-11-29T08:55:21.680Z,6.43
2017-11-29T08:57:50.133Z,5.62
2017-11-29T09:00:18.263Z,7.00
2017-11-29T09:02:47.055Z,5.30
2017-11-29T09:05:15.553Z,5.17
2017-11-29T09:07:43.321Z,7.87
2017-11-29T09:10:11.781Z,6.13
2017-11-29T09:12:39.568Z,8.70
2017-11-29T09:15:07.332Z,7.30
2017-11-29T09:17:35.193Z,7.47
2017-11-29T09:20:02.963Z,7.20
2017-11-29T09:22:31.014Z,6.75
2017-11-29T09:24:58.845Z,5.67
2017-11-29T09:27:27.126Z,5.72
2017-11-29T09:29:55.178Z,5.53
2017-11-29T09:32:23.006Z,7.50
2017-11-29T09:34:50.776Z,5.77
2017-11-29T09:37:18.556Z,6.37
2017-11-29T09:39:46.328Z,6.77
2017-11-29T09:42:14.135Z,5.53
2017-11-29T09:44:42.680Z,5.93
2017-11-29T09:47:10.268Z,8.33
2017-11-29T09:49:37.856Z,5.93
2017-11-29T09:52:05.632Z,6.33
2017-11-29T09:54:33.388Z,5.03
2017-11-29T09:57:01.164Z,6.57
2017-11-29T09:59:28.933Z,5.60
2017-11-29T10:01:56.705Z,6.33
2017-11-29T10:04:24.505Z,5.43
2017-11-29T10:06:52.084Z,7.37
2017-11-29T10:09:19.873Z,5.60
2017-11-29T10:11:47.644Z,6.17
2017-11-29T10:14:15.439Z,5.43
2017-11-29T10:16:43.267Z,4.53
2017-11-29T10:19:11.909Z,4.80
2017-11-29T10:21:39.684Z,5.53
2017-11-29T10:24:07.479Z,4.20
2017-11-29T10:26:36.056Z,3.80
2017-11-29T10:29:03.849Z,4.00
2017-11-29T10:31:31.616Z,5.20
2017-11-29T10:33:59.416Z,7.73
2017-11-29T10:36:27.167Z,5.50
2017-11-29T10:38:54.938Z,4.90
2017-11-29T10:41:22.729Z,4.73
2017-11-29T10:43:50.508Z,5.00
2017-11-29T10:46:18.333Z,4.80
2017-11-29T10:48:46.097Z,6.00
2017-11-29T10:51:14.947Z,8.23
2017-11-29T10:53:42.733Z,5.13
2017-11-29T10:56:10.536Z,4.90
2017-11-29T10:58:38.369Z,5.27
2017-11-29T11:01:06.169Z,5.40
2017-11-29T11:03:33.989Z,4.33
2017-11-29T11:06:02.308Z,9.43
2017-11-29T11:08:30.090Z,4.47
2017-11-29T11:10:57.867Z,4.77
2017-11-29T11:13:25.628Z,4.30
2017-11-29T11:15:53.601Z,4.60
2017-11-29T11:18:21.362Z,3.93
2017-11-29T11:20:49.144Z,4.17
2017-11-29T11:23:16.940Z,4.07
2017-11-29T11:25:44.834Z,4.20
2017-11-29T11:28:12.497Z,4.27
2017-11-29T11:30:40.261Z,3.80
2017-11-29T11:33:08.064Z,4.47
2017-11-29T11:35:35.825Z,4.83
2017-11-29T11:38:03.612Z,4.20
2017-11-29T11:40:31.393Z,4.50
2017-11-29T11:43:00.125Z,5.13
2017-11-29T11:45:27.896Z,4.00
2017-11-29T11:47:55.664Z,3.97
2017-11-29T11:50:23.437Z,4.33
2017-11-29T11:52:51.208Z,4.97
2017-11-29T11:55:18.977Z,4.20
2017-11-29T11:57:46.771Z,4.80
2017-11-29T12:00:15.329Z,4.47
2017-11-29T12:02:43.468Z,4.03
2017-11-29T12:05:11.596Z,4.20
2017-11-29T12:07:39.372Z,4.83
2017-11-29T12:10:08.252Z,4.00
2017-11-29T12:12:36.189Z,7.13
2017-11-29T12:15:04.041Z,5.00
2017-11-29T12:17:31.803Z,4.37
2017-11-29T12:19:59.925Z,4.47
2017-11-29T12:22:28.080Z,4.13
2017-11-29T12:24:56.327Z,4.37
2017-11-29T12:27:24.084Z,5.87
2017-11-29T12:29:52.549Z,4.10
2017-11-29T12:32:21.416Z,4.87
2017-11-29T12:34:49.868Z,3.43
2017-11-29T12:37:17.902Z,4.43
2017-11-29T12:39:46.256Z,3.45
2017-11-29T12:42:14.648Z,3.60
2017-11-29T12:44:43.344Z,3.70
2017-11-29T12:47:11.735Z,3.60
2017-11-29T12:49:51.367Z,3.70
2017-11-29T12:52:19.430Z,3.65
2017-11-29T12:54:47.474Z,2.92
2017-11-29T12:57:15.864Z,4.43
2017-11-29T12:59:44.245Z,6.40
2017-11-29T13:02:12.353Z,4.12
2017-11-29T13:04:40.708Z,5.25
2017-11-29T13:07:09.434Z,5.72
2017-11-29T13:09:38.291Z,7.18
2017-11-29T13:12:06.725Z,7.80
2017-11-29T13:14:35.107Z,5.20
2017-11-29T13:17:03.827Z,5.28
2017-11-29T13:19:32.549Z,5.72
2017-11-29T13:22:01.247Z,5.53
2017-11-29T13:24:29.632Z,6.35
2017-11-29T13:26:58.452Z,5.65
2017-11-29T13:29:26.848Z,7.53
2017-11-29T13:31:54.609Z,5.63
2017-11-29T13:34:22.667Z,4.70
2017-11-29T13:36:50.875Z,5.00
2017-11-29T13:39:18.717Z,4.80
2017-11-29T13:41:46.748Z,4.37
2017-11-29T13:44:15.127Z,10.27
2017-11-29T13:46:43.728Z,7.28
2017-11-29T13:49:12.873Z,6.45
2017-11-29T13:51:41.609Z,6.65
2017-11-29T13:54:10.052Z,8.93
2017-11-29T13:56:38.072Z,5.60
2017-11-29T13:59:07.539Z,5.97
2017-11-29T14:01:36.223Z,6.22
2017-11-29T14:04:04.760Z,7.30
2017-11-29T14:06:32.925Z,4.60
2017-11-29T14:09:01.379Z,8.10
2017-11-29T14:11:30.103Z,6.15
2017-11-29T14:13:59.379Z,4.70
2017-11-29T14:16:28.099Z,7.00
2017-11-29T14:18:56.796Z,4.82
2017-11-29T14:21:25.520Z,6.22
2017-11-29T14:23:55.039Z,11.82
2017-11-29T14:26:23.749Z,7.80
2017-11-29T14:28:53.244Z,6.78
2017-11-29T14:31:22.013Z,7.28
2017-11-29T14:33:50.917Z,5.22
2017-11-29T14:36:19.642Z,6.68
2017-11-29T14:38:48.079Z,6.22
2017-11-29T14:41:16.386Z,7.00
2017-11-29T14:43:45.888Z,6.60
2017-11-29T14:46:15.396Z,5.10
2017-11-29T14:48:45.605Z,5.82
2017-11-29T14:51:14.781Z,7.57
2017-11-29T14:53:46.489Z,7.93
2017-11-29T14:56:15.990Z,5.93
2017-11-29T14:58:46.237Z,5.90
2017-11-29T15:01:14.892Z,7.43
2017-11-29T15:03:43.814Z,7.30
2017-11-29T15:06:12.458Z,6.93
2017-11-29T15:08:41.226Z,7.32
2017-11-29T15:11:10.442Z,6.50
2017-11-29T15:13:39.721Z,7.12
2017-11-29T15:16:08.454Z,6.85
2017-11-29T15:18:38.427Z,6.90
2017-11-29T15:21:07.167Z,7.18
2017-11-29T15:23:36.871Z,6.43
2017-11-29T15:26:06.382Z,6.90
2017-11-29T15:28:36.754Z,6.78
2017-11-29T15:31:04.680Z,5.90
2017-11-29T15:33:33.177Z,7.03
2017-11-29T15:36:01.955Z,7.10
2017-11-29T15:38:32.357Z,6.55
2017-11-29T15:41:02.440Z,7.68
2017-11-29T15:43:31.188Z,8.20
2017-11-29T15:46:00.325Z,12.75
2017-11-29T15:48:29.029Z,7.07
2017-11-29T15:50:57.740Z,6.55
2017-11-29T15:53:26.435Z,6.82
2017-11-29T15:55:55.952Z,7.43
2017-11-29T15:58:24.079Z,8.65
2017-11-29T16:00:52.788Z,8.25
2017-11-29T16:03:21.480Z,7.97
2017-11-29T16:05:49.859Z,10.57
2017-11-29T16:08:18.559Z,8.45
2017-11-29T16:10:47.712Z,7.40
2017-11-29T16:13:16.238Z,10.20
2017-11-29T16:15:44.944Z,7.93
2017-11-29T16:18:14.085Z,9.13
2017-11-29T16:20:43.597Z,9.75
2017-11-29T16:23:12.484Z,10.40
2017-11-29T16:25:40.864Z,12.00
2017-11-29T16:28:09.564Z,12.00
2017-11-29T16:30:37.589Z,8.77
2017-11-29T16:33:06.469Z,9.70
2017-11-29T16:35:35.929Z,9.90
2017-11-29T16:38:04.637Z,10.73
2017-11-29T16:40:33.033Z,11.63
2017-11-29T16:43:02.513Z,10.80
2017-11-29T16:45:31.304Z,9.55
2017-11-29T16:47:59.714Z,9.30
2017-11-29T16:50:29.285Z,9.43
2017-11-29T16:52:57.996Z,9.63
2017-11-29T16:55:26.929Z,12.43
2017-11-29T16:57:55.645Z,10.75
2017-11-29T17:00:23.717Z,14.63
2017-11-29T17:02:52.448Z,10.27
2017-11-29T17:05:21.925Z,11.90
2017-11-29T17:07:50.662Z,9.57
2017-11-29T17:10:19.377Z,12.75
2017-11-29T17:12:48.280Z,8.70
2017-11-29T17:15:16.988Z,8.77
2017-11-29T17:17:45.712Z,8.43
2017-11-29T17:20:15.487Z,12.65
2017-11-29T17:22:44.311Z,12.52
2017-11-29T17:25:13.809Z,8.15
2017-11-29T17:27:42.383Z,12.68
2017-11-29T17:30:12.269Z,8.65
2017-11-29T17:32:40.454Z,10.98
2017-11-29T17:35:08.551Z,8.10
2017-11-29T17:37:37.111Z,8.52
2017-11-29T17:40:05.879Z,11.73
2017-11-29T17:42:34.239Z,9.43
2017-11-29T17:45:02.649Z,9.98
2017-11-29T17:47:31.577Z,10.52
2017-11-29T17:50:00.292Z,9.70
2017-11-29T17:52:29.065Z,10.80
2017-11-29T17:54:58.304Z,13.40
2017-11-29T17:57:27.113Z,12.57
2017-11-29T17:59:55.828Z,16.87
2017-11-29T18:02:24.557Z,11.70
2017-11-29T18:04:53.083Z,11.10
2017-11-29T18:07:21.810Z,11.80
2017-11-29T18:09:50.557Z,16.83
2017-11-29T18:12:19.267Z,13.68
2017-11-29T18:14:48.595Z,15.15
2017-11-29T18:17:17.349Z,34.58
2017-11-29T18:19:45.916Z,38.55
2017-11-29T18:22:14.670Z,51.00
2017-11-29T18:24:42.961Z,52.13
2017-11-29T18:27:11.505Z,23.05
2017-11-29T18:29:40.025Z,26.00
2017-11-29T18:32:08.672Z,16.67
2017-11-29T18:34:38.164Z,17.67
2017-11-29T18:37:07.656Z,45.92
2017-11-29T18:39:36.360Z,85.38
2017-11-29T18:42:05.543Z,46.42
2017-11-29T18:44:34.277Z,58.87
2017-11-29T18:47:02.692Z,56.15
2017-11-29T18:49:31.401Z,27.13
2017-11-29T18:52:00.135Z,41.78
2017-11-29T18:54:28.492Z,33.72
2017-11-29T18:56:57.711Z,34.65
2017-11-29T18:59:27.191Z,44.47
2017-11-29T19:01:55.928Z,53.30
2017-11-29T19:04:24.642Z,35.70
2017-11-29T19:06:53.200Z,42.83
2017-11-29T19:09:21.749Z,38.15
2017-11-29T19:11:51.060Z,28.60
2017-11-29T19:14:19.812Z,39.92
2017-11-29T19:16:48.760Z,66.93
2017-11-29T19:19:17.522Z,26.65
2017-11-29T19:21:46.723Z,17.62
2017-11-29T19:24:16.026Z,20.75
2017-11-29T19:26:45.328Z,18.48
2017-11-29T19:29:14.421Z,20.73
2017-11-29T19:31:43.620Z,29.87
2017-11-29T19:34:12.523Z,28.35
2017-11-29T19:36:41.711Z,25.70
2017-11-29T19:39:10.932Z,35.65
2017-11-29T19:41:40.112Z,28.10
2017-11-29T19:44:09.413Z,29.48
2017-11-29T19:46:38.714Z,22.95
2017-11-29T19:49:07.914Z,24.55
2017-11-29T19:51:37.113Z,22.48
2017-11-29T19:54:06.313Z,20.85
2017-11-29T19:56:35.521Z,25.58
2017-11-29T19:59:04.718Z,26.77
2017-11-29T20:01:33.912Z,21.05
2017-11-29T20:04:03.109Z,21.20
2017-11-29T20:06:32.008Z,23.80
2017-11-29T20:09:00.793Z,21.87
2017-11-29T20:11:29.583Z,21.40
2017-11-29T20:13:58.885Z,18.23
2017-11-29T20:16:27.671Z,23.98
2017-11-29T20:18:56.875Z,20.50
2017-11-29T20:21:26.078Z,22.25
2017-11-29T20:23:55.069Z,20.85
2017-11-29T20:26:24.267Z,21.15
2017-11-29T20:28:53.464Z,24.98
2017-11-29T20:31:22.662Z,25.83
2017-11-29T20:33:51.658Z,19.80
2017-11-29T20:36:20.089Z,20.70
2017-11-29T20:38:48.897Z,19.08
2017-11-29T20:41:17.633Z,16.77
2017-11-29T20:43:46.390Z,20.00
2017-11-29T20:46:15.887Z,21.60
2017-11-29T20:48:44.633Z,20.80
2017-11-29T20:51:13.209Z,18.80
2017-11-29T20:53:41.940Z,18.20
2017-11-29T20:56:10.664Z,21.05
2017-11-29T20:58:40.201Z,19.05
2017-11-29T21:01:08.947Z,21.23
2017-11-29T21:03:38.154Z,21.87
2017-11-29T21:06:07.651Z,16.77
2017-11-29T21:08:36.893Z,17.15
2017-11-29T21:11:05.453Z,20.55
2017-11-29T21:13:34.954Z,20.95
2017-11-29T21:16:03.821Z,16.65
2017-11-29T21:18:32.617Z,20.02
2017-11-29T21:21:01.342Z,28.30
2017-11-29T21:23:30.089Z,19.17
2017-11-29T21:25:58.829Z,22.10
2017-11-29T21:28:27.556Z,21.37
2017-11-29T21:30:56.300Z,23.90
2017-11-29T21:33:25.044Z,23.75
2017-11-29T21:35:54.531Z,29.60
2017-11-29T21:38:24.065Z,21.98
2017-11-29T21:40:52.897Z,34.67
2017-11-29T21:43:21.633Z,23.45
2017-11-29T21:45:51.133Z,27.70
2017-11-29T21:48:19.865Z,28.35
2017-11-29T21:50:48.605Z,20.10
2017-11-29T21:53:17.362Z,28.55
2017-11-29T21:55:46.243Z,30.83
2017-11-29T21:58:15.000Z,24.30
2017-11-29T22:00:43.728Z,20.73
2017-11-29T22:03:12.552Z,20.25
2017-11-29T22:05:41.396Z,29.02
2017-11-29T22:08:10.115Z,21.25
2017-11-29T22:10:38.865Z,23.62
2017-11-29T22:13:08.537Z,21.12
2017-11-29T22:15:37.279Z,15.57
2017-11-29T22:18:05.983Z,19.80
2017-11-29T22:20:34.753Z,21.05
2017-11-29T22:23:03.472Z,17.12
2017-11-29T22:25:31.864Z,18.60
2017-11-29T22:28:00.733Z,18.52
2017-11-29T22:30:29.984Z,15.23
2017-11-29T22:32:59.489Z,16.30
2017-11-29T22:35:29.128Z,22.25
2017-11-29T22:37:57.844Z,18.92
2017-11-29T22:40:26.566Z,20.62
2017-11-29T22:42:55.449Z,18.55
2017-11-29T22:45:24.280Z,21.15
2017-11-29T22:47:53.016Z,23.08
2017-11-29T22:50:21.741Z,20.40
2017-11-29T22:52:51.416Z,16.45
2017-11-29T22:55:20.125Z,19.77
2017-11-29T22:57:48.861Z,17.70
2017-11-29T23:00:27.238Z,20.05
2017-11-29T23:02:56.862Z,16.10
2017-11-29T23:05:25.802Z,16.25
2017-11-29T23:07:54.598Z,17.02
2017-11-29T23:10:23.329Z,18.42
2017-11-29T23:12:53.001Z,18.92
2017-11-29T23:15:21.716Z,18.40
2017-11-29T23:17:51.223Z,19.17
2017-11-29T23:20:20.721Z,16.37
2017-11-29T23:22:49.477Z,16.17
2017-11-29T23:25:18.195Z,20.10
2017-11-29T23:27:46.912Z,17.87
2017-11-29T23:30:15.300Z,15.88
2017-11-29T23:32:44.046Z,22.67
2017-11-29T23:35:12.832Z,20.25
2017-11-29T23:37:41.577Z,23.20
2017-11-29T23:40:10.300Z,21.45
2017-11-29T23:42:38.681Z,21.48
2017-11-29T23:45:07.135Z,19.75
2017-11-29T23:47:36.785Z,24.92
2017-11-29T23:50:05.521Z,23.27
2017-11-29T23:52:34.318Z,21.92
2017-11-29T23:55:03.300Z,24.27
2017-11-29T23:57:31.696Z,23.80
